Defiance, Ohio
Current Conditions -  °F | °C
As of 11:53 PM on Saturday 25 Oct 2014 (Local Time) from KDFI Reporting Station
Clear Clear  
Wind Chill: 53°   Ceiling: Unl
Heat Index: 53°   Visibility: 10mi
Dew Point: 35°   Wind: 7mph
Humidity: 50%   Direction: 290°WNW
Pressure: 29.89"   Gusts: NA
Location:  41.29°N, 84.36°W
Report Text: KDFI 260353Z AUTO 29006KT 10SM CLR 12/02 A2989 RMK AO2 SLP120 T01170017
Loading
Personal Weather Stations






























Interactive Weather Map
Tropical Storm Tracking
New forecast layout! Learn more

10-Day Weather Forecast

Advertisements
Track Severe Weather on mobile